• Join FlightAware (Why Join?)
  • Login
  • US Flag 
07:41AM EDT


 

Airport Tracker/Info


-or-


 

Live Flight TrackerFlight Track Log ✈ PDT4236 ✈ 20-Jul-2013 ✈ KCLT - KHTS

Flight Track Log - Related Links

Times and Time Zones

All times are in EDT time to prevent confusion due to time zone crossing. See the PDT4236 flight status page for this flight to view local times or setup timezone preferences in your user account.

Time Position Orientation Groundspeed Altitude Reporting Facility
EDT Latitude Longitude Course Direction KTS MPH feet Rate Location/Type
03:07PM 35.1969 -80.9328 90° East 143 165 1,400  Level Atlanta Center
03:08PM 35.1919 -80.8975 100° East 157 181 2,400 1,320 Climbing Atlanta Center
03:09PM 35.1925 -80.8417 89° East 159 183 3,700 1,140 Climbing Atlanta Center
03:10PM 35.1833 -80.5487 90° East  Level FlightAware Approximate
03:10PM 35.1933 -80.7881 89° East 159 183 4,800  Level Atlanta Center
03:11PM 35.2000 -80.4158 90° East  Level FlightAware Approximate
03:11PM 35.1894 -80.7272 94° East 194 223 5,000  Level Atlanta Center
03:12PM 35.2000 -80.2733 90° East  Level FlightAware Approximate
03:12PM 35.1956 -80.6458 85° East 217 250 5,900  Level Atlanta Center
03:13PM 35.2000 -80.1307 90° East  Level FlightAware Approximate
03:13PM 35.1981 -80.5847 87° East 199 229 6,600  Level Atlanta Center
03:14PM 35.1983 -80.5136 90° East 188 216 7,800 1,020 Climbing Atlanta Center
03:15PM 35.2008 -80.4575 87° East 187 215 8,700 1,020 Climbing Atlanta Center
03:17PM 35.2006 -80.3275 90° East 216 249 10,800 960 Climbing Washington Center
03:18PM 35.2031 -80.2639 87° East 192 221 11,700 840 Climbing Washington Center
03:19PM 35.2036 -80.1956 89° East 192 221 12,500 780 Climbing Washington Center
03:20PM 35.2000 -80.1267 94° East 200 230 13,300 660 Climbing Washington Center
03:21PM 35.2025 -80.0581 87° East 200 230 13,900 780 Climbing Washington Center
03:22PM 35.2094 -79.9872 83° East 200 230 14,900 840 Climbing Washington Center
03:23PM 35.2328 -79.9200 67° East 205 236 15,600 720 Climbing Washington Center
03:24PM 35.2703 -79.8633 51° Northeast 210 242 16,400 660 Climbing Washington Center
03:25PM 35.3097 -79.8069 49° Northeast 210 242 17,000 540 Climbing Washington Center
03:26PM 35.3431 -79.7503 54° Northeast 215 247 17,600 540 Climbing Washington Center
03:27PM 35.3786 -79.6883 55° Northeast 220 253 18,200 540 Climbing Washington Center
03:28PM 35.4039 -79.6233 64° Northeast 215 247 18,800 540 Climbing Washington Center
03:29PM 35.4269 -79.5531 68° East 215 247 19,300 480 Climbing Washington Center
03:30PM 35.4481 -79.4828 70° East 215 247 19,800 300 Climbing Washington Center
03:31PM 35.4717 -79.3997 71° East 223 257 20,000 60 Climbing Washington Center
03:32PM 35.5108 -79.3431 50° Northeast 234 269 20,000  Level Washington Center
03:33PM 35.5611 -79.2714 49° Northeast 247 284 20,000  Level Washington Center
03:34PM 35.5986 -79.2067 55° Northeast 252 290 20,000  Level Washington Center
03:35PM 35.6444 -79.1397 50° Northeast 247 284 20,000  Level Washington Center
03:36PM 35.6903 -79.0700 51° Northeast 247 284 20,000  Level Washington Center
03:37PM 35.7361 -78.9978 52° Northeast 247 284 20,000  Level Washington Center
03:38PM 35.7842 -78.9283 50° Northeast 252 290 20,000  Level Washington Center
03:39PM 35.8278 -78.8583 52° Northeast 252 290 20,000  Level Washington Center
03:40PM 35.8953 -78.8303 19° North 247 284 20,000  Level Washington Center
03:41PM 35.9525 -78.8789 325° Northwest 218 251 20,000  Level Washington Center
03:42PM 36.0069 -78.9403 318° Northwest 221 254 20,000  Level Washington Center
03:43PM 36.0594 -79.0017 317° Northwest 242 278 20,000  Level Washington Center
03:44PM 36.1122 -79.0606 318° Northwest 255 293 20,000  Level Washington Center
03:45PM 36.1625 -79.1244 314° West 262 302 20,000  Level Washington Center
03:46PM 36.2106 -79.1883 313° West 262 302 20,000  Level Washington Center
03:47PM 36.2564 -79.2600 308° West 255 293 20,000  Level Washington Center
03:48PM 36.3003 -79.3264 309° West 255 293 20,000  Level Washington Center
03:49PM 36.3461 -79.3931 310° West 255 293 20,000  Level Washington Center
03:50PM 36.3900 -79.4572 310° West 255 293 20,000  Level Washington Center
03:51PM 36.4394 -79.5344 309° West 255 293 20,000  Level Washington Center
03:52PM 36.4833 -79.5989 310° West 255 293 20,000  Level Washington Center
03:53PM 36.5269 -79.6656 309° West 255 293 20,000  Level Washington Center
03:54PM 36.5686 -79.7272 310° West 250 288 20,000  Level Washington Center
03:55PM 36.6064 -79.7861 309° West 250 288 20,000  Level Washington Center
03:56PM 36.6500 -79.8508 310° West 245 282 20,000  Level Washington Center
03:57PM 36.6914 -79.9150 309° West 245 282 20,000  Level Washington Center
03:58PM 36.7350 -79.9797 310° West 245 282 20,000  Level Washington Center
03:59PM 36.7803 -80.0525 308° West 245 282 20,000  Level Washington Center
04:00PM 36.8175 -80.1194 305° West 239 275 20,000  Level Washington Center
04:01PM 36.8500 -80.1939 299° West 239 275 20,000  Level Washington Center
04:02PM 36.8783 -80.2683 295° West 238 274 20,000  Level Atlanta Center
04:03PM 36.9094 -80.3317 302° West 222 255 20,000  Level Atlanta Center
04:04PM 36.9492 -80.4053 304° West 227 261 20,000  Level Atlanta Center
04:05PM 36.9906 -80.4708 308° West 238 274 20,000  Level Atlanta Center
04:06PM 37.0419 -80.5128 327° Northwest 243 280 20,000  Level Atlanta Center
04:07PM 37.0933 -80.5650 321° Northwest 238 274 20,000  Level Atlanta Center
04:08PM 37.1492 -80.6147 325° Northwest 243 280 20,000  Level Atlanta Center
04:09PM 37.2108 -80.6667 326° Northwest 243 280 20,000  Level Atlanta Center
04:11PM 37.2764 -80.7964 302° West 246 283 20,000  Level Indianapolis Center
04:12PM 37.3122 -80.8658 303° West 244 281 20,000  Level Indianapolis Center
04:13PM 37.3536 -80.9294 309° West 242 278 20,000  Level Indianapolis Center
04:14PM 37.3942 -80.9942 308° West 241 277 20,000  Level Indianapolis Center
04:15PM 37.4436 -81.0711 309° West 243 280 20,000  Level Indianapolis Center
04:16PM 37.4842 -81.1347 309° West 240 276 20,000 -120 Level Indianapolis Center
04:17PM 37.5247 -81.1983 309° West 239 275 19,800 -600 Descending Indianapolis Center
04:18PM 37.5692 -81.2689 308° West 260 299 18,900 -1,080 Descending Indianapolis Center
04:19PM 37.6258 -81.3600 308° West 280 322 17,700 -1,080 Descending Indianapolis Center
04:20PM 37.6750 -81.4369 309° West 288 331 16,800 -1,020 Descending Indianapolis Center
04:21PM 37.7267 -81.5192 308° West 291 335 15,700 -1,080 Descending Indianapolis Center
04:22PM 37.7758 -81.5975 308° West 285 328 14,700 -1,020 Descending Indianapolis Center
04:23PM 37.8244 -81.6744 309° West 281 323 13,700 -1,080 Descending Indianapolis Center
04:24PM 37.8683 -81.7447 308° West 278 320 12,600 -840 Descending Indianapolis Center
04:25PM 37.9122 -81.8156 308° West 261 300 12,000 -300 Descending Indianapolis Center
04:26PM 37.9614 -81.8956 308° West 243 280 12,000 -300 Level Indianapolis Center
04:27PM 38.0039 -81.9625 309° West 243 280 11,500 -720 Descending Indianapolis Center
04:28PM 38.0456 -82.0322 307° West 246 283 10,600 -900 Descending Indianapolis Center
04:29PM 38.0911 -82.1050 309° West 258 297 9,700 -960 Descending Indianapolis Center
04:30PM 38.1461 -82.1694 317° Northwest 267 307 8,700 -960 Descending Indianapolis Center
04:31PM 38.1981 -82.2336 316° Northwest 261 300 7,800 -1,680 Descending Indianapolis Center
04:32PM 38.2483 -82.2944 316° Northwest 252 290 5,300 -2,220 Descending Indianapolis Center
04:33PM 38.2950 -82.3503 317° Northwest 237 273 3,300 -1,140 Descending Indianapolis Center
04:34PM 38.3261 -82.4044 306° West 211 243 3,000 -300 Descending Indianapolis Center